< < Back
Terminal Aerodrome Forecast


Current Version              Previous Versions:   1  2  3  4  5  6  7  8  9  

Terminal Aerodrome Forecast

314
FTUS42 KFFC 301353 AAA
TAFATL
TAF AMD
KATL 301353Z 3014/3118 08008KT P6SM SCT030
     FM301700 07012G18KT P6SM SCT045
     FM310000 09007KT P6SM SCT120
     FM311400 06009KT P6SM FEW030=



Latest METAR

797
SAUS70 KWBC 301456
MTRATL
METAR KATL 301452Z 07012KT 10SM FEW030 28/20 A3012 RMK AO2 SLP188
T02780200 53007


USA.gov is the U.S. government's official web portal to all federal, state and local government web resources and services.